x

Destruction Island, Wa (desw1) Weather Station

3:00am - Wed 23rd Apr 2014 All times are PDT. -7 hours from GMT.

  • Wind
    16mph, 20mph gusts
  • Air Temp 45°f
  • Sea Pressure 1010.7mb
  • Destruction Island, Wa
  • Destruction Island, Wa

More Historic Weather Station data

Upgrade to MSW Pro to gain access to the past 30 days of data for over 8000 Wavebouys and Weather Stations around the globe.

Join Pro

Comparision Forecast

View Surf forecast
   
Wed 04/23 3:00am 16 20 mph 1010.7mb 45f
2:00am 16 17 mph 1010.5mb 47f
1:00am 20 22 mph 1010.1mb 49f
12:00am 15 18 mph 1010.2mb 48f
Tue 04/22 11:00pm 18 20 mph 1009.9mb 47f
10:00pm 13 14 mph 1010mb 48f
9:00pm 16 17 mph 1009.9mb 48f
8:00pm 22 23 mph 1009.7mb 48f
7:00pm 25 28 mph 1009.7mb 47f
6:00pm 17 20 mph 1010.5mb 46f
5:00pm 23 29 mph 1010.9mb 46f
4:00pm 29 32 mph 1011.2mb 47f
3:00pm 20 23 mph 1011.7mb 49f
2:00pm 17 21 mph 1011.7mb 50f
1:00pm 17 21 mph 1011.9mb 50f
12:00pm 16 18 mph 1012.2mb 49f
11:00am 13 16 mph 1012.2mb 48f
10:00am 10 11 mph 1012mb 48f
9:00am 5 6 mph 1012.1mb 47f
8:00am 6 7 mph 1012.4mb 45f
7:00am 7 8 mph 1012.3mb 47f
6:00am 9 11 mph 1012.3mb 47f
5:00am 14 16 mph 1012.1mb 47f
4:00am 14 15 mph 1012.1mb 47f
3:00am 14 16 mph 1012.3mb 47f
2:00am 18 20 mph 1012.1mb 47f
1:00am 17 18 mph 1012.2mb 48f
12:00am 20 21 mph 1012.2mb 48f
Mon 04/21 11:00pm 8 9 mph 1012.6mb 47f
10:00pm 10 11 mph 1012.8mb 47f
9:00pm 8 9 mph 1013.3mb 47f
8:00pm 14 15 mph 1013mb 47f
7:00pm 15 17 mph 1013.4mb 47f
6:00pm 20 22 mph 1014mb 47f
5:00pm 20 22 mph 1014.4mb 46f
4:00pm 15 16 mph 1014.6mb 47f
3:00pm 13 14 mph 1015mb 47f
2:00pm 9 11 mph 1015.4mb 48f
1:00pm 9
mph
1015.7mb 47f
12:00pm 6 7 mph 1016.4mb 47f
11:00am 7 9 mph 1016.7mb 47f
10:00am 5
mph
1016.8mb 47f
9:00am 5 6 mph 1017.2mb 47f
8:00am 2
mph
1017.7mb 46f
7:00am 2 3 mph 1017.9mb 47f
6:00am 5
mph
1018mb 47f
5:00am 5
mph
1018.5mb 47f
4:00am 2 3 mph 1018.9mb 47f
3:00am 5 6 mph 1019.3mb 47f
2:00am 11 14 mph 1019.6mb 49f
1:00am 21 23 mph 1019.3mb 51f
12:00am 22 24 mph 1019.4mb 51f
Sun 04/20 11:00pm 20 22 mph 1019.9mb 51f
10:00pm 16 17 mph 1020.5mb 51f
9:00pm 15 16 mph 1020.7mb 51f
8:00pm 15 17 mph 1020.9mb 51f
7:00pm 21 23 mph 1021.4mb 51f
6:00pm 22 25 mph 1021.9mb 51f
5:00pm 22 26 mph 1022mb 51f
4:00pm 22 26 mph 1022.4mb 51f
3:00pm 24 28 mph 1023mb 51f
2:00pm 24 28 mph 1023.1mb 51f
1:00pm 13 14 mph 1023.8mb 50f
12:00pm 20 23 mph 1024.1mb 49f
11:00am 20 23 mph 1023.9mb 50f
10:00am 21 24 mph 1023.9mb 49f
9:00am 18 22 mph 1023.8mb 48f
8:00am 15 17 mph 1023.9mb 47f
7:00am 17 20 mph 1023.7mb 47f
6:00am 17 20 mph 1023.5mb 47f
5:00am 16
mph
1023.7mb 47f
4:00am 7 8 mph 1023.8mb 49f
3:00am 9 10 mph 1023.5mb 48f
2:00am 15 16 mph 1022.9mb 48f
1:00am 11 13 mph 1022.7mb 49f
12:00am 13 14 mph 1022.1mb 49f
Sat 04/19 11:00pm 14 15 mph 1021.2mb 49f
10:00pm 20 21 mph 1020.4mb 49f
9:00pm 15 16 mph 1019.3mb 49f
8:00pm 16 18 mph 1018.3mb 46f
7:00pm 17 18 mph 1017.1mb 49f
6:00pm 29 32 mph 1015.5mb 50f
5:00pm 23 26 mph 1014.3mb 50f
4:00pm 22 24 mph 1013.2mb 48f
3:00pm 24 26 mph 1011.9mb 49f
2:00pm 22 25 mph 1010.4mb 50f
1:00pm 23 26 mph 1009.3mb 48f
12:00pm 30 33 mph 1008.1mb 47f